Time;durP1;ratioP1;P1;durP2;ratioP2;P2;SDS_P1;SDS_P2;PMS_P1;PMS_P2;Temp;Humidity;BMP_temperature;BMP_pressure;BME280_temperature;BME280_humidity;BME280_pressure;Samples;Min_cycle;Max_cycle;Signal;HPM_P1;HPM_P2
2022/11/13 00:01:19;;;;;;;18.00;12.88;;;;;;;5.95;100.00;102622.78;5113408;28;20075;-56
2022/11/13 00:03:48;;;;;;;17.75;12.50;;;;;;;5.89;100.00;102623.75;5111922;28;20048;-53
2022/11/13 00:06:17;;;;;;;18.10;13.43;;;;;;;5.88;100.00;102624.63;5113372;28;20550;-54
2022/11/13 00:08:45;;;;;;;17.65;13.27;;;;;;;5.84;100.00;102627.34;5113364;27;20051;-55
2022/11/13 00:11:17;;;;;;;18.80;12.70;;;;;;;5.88;100.00;102626.41;5113509;28;20044;-55
2022/11/13 00:13:46;;;;;;;19.40;13.73;;;;;;;5.87;100.00;102622.91;5112606;28;20087;-54
2022/11/13 00:16:18;;;;;;;18.58;13.65;;;;;;;5.88;100.00;102622.03;5112677;27;20051;-53
2022/11/13 00:18:47;;;;;;;20.77;13.85;;;;;;;5.87;100.00;102622.91;5112059;28;20054;-55
2022/11/13 00:21:17;;;;;;;18.33;13.65;;;;;;;5.84;100.00;102615.13;5112896;28;20056;-54
2022/11/13 00:23:46;;;;;;;18.83;13.57;;;;;;;5.85;100.00;102618.59;5112579;28;20062;-52
2022/11/13 00:26:16;;;;;;;21.80;13.77;;;;;;;5.83;100.00;102620.38;5113323;28;20047;-54
2022/11/13 00:28:45;;;;;;;17.05;13.00;;;;;;;5.83;100.00;102625.59;5113556;28;20044;-54
2022/11/13 00:31:15;;;;;;;19.58;13.95;;;;;;;5.87;100.00;102616.81;5112858;28;20123;-55
2022/11/13 00:33:43;;;;;;;20.35;13.45;;;;;;;5.89;100.00;102609.81;5111905;28;20383;-53
2022/11/13 00:36:31;;;;;;;20.92;14.70;;;;;;;5.89;100.00;102602.84;5112783;28;20081;-54
2022/11/13 00:39:00;;;;;;;20.63;14.05;;;;;;;5.87;100.00;102599.41;5113067;27;20043;-55
2022/11/13 00:41:28;;;;;;;21.05;14.40;;;;;;;5.86;100.00;102596.81;5112847;28;20350;-56
2022/11/13 00:43:56;;;;;;;20.20;15.10;;;;;;;5.84;100.00;102593.38;5112270;28;20071;-55
2022/11/13 00:46:26;;;;;;;20.52;14.48;;;;;;;5.85;100.00;102593.34;5114770;28;20123;-53
2022/11/13 00:48:54;;;;;;;19.30;13.30;;;;;;;5.82;100.00;102588.19;5112386;27;20071;-55
2022/11/13 00:51:25;;;;;;;18.65;13.25;;;;;;;5.82;100.00;102588.19;5112307;28;20118;-53
2022/11/13 00:53:53;;;;;;;19.92;14.68;;;;;;;5.82;100.00;102582.97;5111677;28;20093;-55
2022/11/13 00:56:21;;;;;;;18.98;13.98;;;;;;;5.81;100.00;102586.47;5112278;28;20406;-54
2022/11/13 00:58:50;;;;;;;19.05;13.68;;;;;;;5.79;100.00;102583.00;5111896;28;20054;-52
2022/11/13 01:01:20;;;;;;;19.48;14.05;;;;;;;5.76;100.00;102575.22;5113191;28;20055;-54
2022/11/13 01:03:53;;;;;;;20.10;13.90;;;;;;;5.74;100.00;102577.03;5114339;27;20418;-53
2022/11/13 01:06:23;;;;;;;21.05;15.10;;;;;;;5.73;100.00;102583.13;5112446;28;20044;-54
2022/11/13 01:08:54;;;;;;;20.25;14.35;;;;;;;5.72;100.00;102573.56;5112163;28;20413;-54
2022/11/13 01:11:26;;;;;;;20.55;15.02;;;;;;;5.72;100.00;102573.56;5112044;28;20039;-54
2022/11/13 01:13:54;;;;;;;19.75;14.52;;;;;;;5.71;100.00;102577.06;5111470;28;20043;-54
2022/11/13 01:16:24;;;;;;;21.80;16.40;;;;;;;5.72;100.00;102568.34;5109860;28;20039;-53
2022/11/13 01:18:55;;;;;;;20.45;14.98;;;;;;;5.74;100.00;102574.41;5113393;28;20040;-52
2022/11/13 01:21:26;;;;;;;21.10;15.00;;;;;;;5.80;100.00;102573.44;5112376;28;20043;-53
2022/11/13 01:23:55;;;;;;;21.80;14.95;;;;;;;5.84;100.00;102570.75;5111523;28;20422;-54
2022/11/13 01:26:27;;;;;;;22.33;15.45;;;;;;;5.90;100.00;102572.38;5111961;28;20044;-53
2022/11/13 01:28:57;;;;;;;23.15;17.00;;;;;;;5.92;100.00;102565.38;5110621;28;20059;-52
2022/11/13 01:31:28;;;;;;;23.92;16.55;;;;;;;5.96;100.00;102563.56;5111154;28;20596;-54
2022/11/13 01:33:58;;;;;;;19.00;14.73;;;;;;;5.95;100.00;102557.50;5110965;28;20104;-52
2022/11/13 01:36:27;;;;;;;21.98;14.30;;;;;;;5.92;100.00;102561.00;5111890;28;20220;-53
2022/11/13 01:38:57;;;;;;;19.52;14.60;;;;;;;5.86;100.00;102561.13;5111127;28;20403;-53
2022/11/13 01:41:27;;;;;;;20.10;14.05;;;;;;;5.84;100.00;102555.06;5112863;28;20055;-53
2022/11/13 01:43:56;;;;;;;18.50;14.13;;;;;;;5.81;100.00;102549.03;5112997;28;20059;-53
2022/11/13 01:46:29;;;;;;;19.65;14.27;;;;;;;5.75;100.00;102547.41;5111452;28;20440;-54
2022/11/13 01:49:04;;;;;;;20.52;13.95;;;;;;;5.69;100.00;102542.28;5111191;28;20510;-54
2022/11/13 01:51:34;;;;;;;18.52;13.55;;;;;;;5.61;100.00;102542.41;5111236;28;20051;-52
2022/11/13 01:54:06;;;;;;;17.52;13.30;;;;;;;5.59;100.00;102537.22;5112695;28;20100;-52
2022/11/13 01:56:34;;;;;;;18.33;13.32;;;;;;;5.57;100.00;102536.38;5113461;28;20052;-53
2022/11/13 01:59:06;;;;;;;16.05;13.02;;;;;;;5.56;100.00;102536.41;5114618;28;20120;-52
2022/11/13 02:01:35;;;;;;;19.35;12.68;;;;;;;5.55;100.00;102535.56;5110823;28;20047;-51
2022/11/13 02:04:05;;;;;;;17.15;12.60;;;;;;;5.49;100.00;102532.19;5111716;28;20055;-53
2022/11/13 02:06:42;;;;;;;17.83;13.52;;;;;;;5.48;100.00;102531.34;5112955;28;20066;-53
2022/11/13 02:09:11;;;;;;;18.80;12.90;;;;;;;5.44;100.00;102524.44;5111226;28;20051;-54
2022/11/13 02:11:39;;;;;;;18.67;13.05;;;;;;;5.42;100.00;102524.44;5110845;28;20489;-53
2022/11/13 02:14:09;;;;;;;20.85;13.15;;;;;;;5.41;100.00;102516.66;5110646;28;20082;-53
2022/11/13 02:16:38;;;;;;;17.65;12.95;;;;;;;5.44;100.00;102520.97;5110062;28;20410;-54
2022/11/13 02:19:14;;;;;;;16.50;12.85;;;;;;;5.42;100.00;102521.84;5110456;28;20139;-54
2022/11/13 02:21:47;;;;;;;18.27;12.43;;;;;;;5.42;100.00;102518.38;5109901;28;20078;-53
2022/11/13 02:24:26;;;;;;;17.25;12.02;;;;;;;5.39;100.00;102518.44;5109810;28;20051;-53
2022/11/13 02:26:59;;;;;;;16.95;13.13;;;;;;;5.39;100.00;102511.47;5109572;28;20097;-51
2022/11/13 02:29:27;;;;;;;16.55;12.35;;;;;;;5.35;100.00;102525.44;5113725;28;20047;-47
2022/11/13 02:31:56;;;;;;;18.48;13.65;;;;;;;5.32;100.00;102517.69;5113639;28;20035;-47
2022/11/13 02:34:24;;;;;;;19.65;13.02;;;;;;;5.32;100.00;102516.81;5113767;28;20047;-50
2022/11/13 02:36:53;;;;;;;15.93;12.20;;;;;;;5.35;100.00;102512.41;5113646;28;20048;-48
2022/11/13 02:39:24;;;;;;;17.75;13.48;;;;;;;5.33;100.00;102518.53;5113926;28;20402;-47
2022/11/13 02:41:53;;;;;;;19.55;14.05;;;;;;;5.33;100.00;102515.91;5113606;28;20048;-49
2022/11/13 02:44:21;;;;;;;18.15;13.43;;;;;;;5.33;100.00;102511.56;5113948;28;20047;-50
2022/11/13 02:46:51;;;;;;;19.00;14.18;;;;;;;5.29;100.00;102512.53;5113656;28;20048;-49
2022/11/13 02:49:20;;;;;;;19.50;14.30;;;;;;;5.29;100.00;102503.81;5113081;28;20051;-47
2022/11/13 02:51:48;;;;;;;20.33;14.88;;;;;;;5.49;100.00;102503.47;5109912;28;20658;-49
2022/11/13 02:54:16;;;;;;;20.95;15.35;;;;;;;5.49;100.00;102496.50;5111236;28;20073;-48
2022/11/13 02:56:47;;;;;;;20.15;14.88;;;;;;;5.49;100.00;102503.47;5113536;28;20052;-47
2022/11/13 02:59:16;;;;;;;20.80;15.30;;;;;;;5.48;100.00;102499.16;5113548;28;20050;-47
2022/11/13 03:01:44;;;;;;;20.85;15.73;;;;;;;5.48;100.00;102493.91;5109645;28;20461;-49
2022/11/13 03:04:12;;;;;;;19.85;15.73;;;;;;;5.49;100.00;102486.06;5110546;28;20052;-47
2022/11/13 03:06:40;;;;;;;19.42;14.82;;;;;;;5.50;100.00;102494.78;5112198;28;20584;-50
2022/11/13 03:09:09;;;;;;;20.60;15.77;;;;;;;5.50;100.00;102500.00;5113252;28;20099;-49
2022/11/13 03:11:37;;;;;;;19.33;14.35;;;;;;;5.52;100.00;102495.59;5113368;28;20646;-51
2022/11/13 03:14:07;;;;;;;19.50;15.45;;;;;;;5.56;100.00;102498.13;5113031;28;20482;-47
2022/11/13 03:16:35;;;;;;;17.20;14.15;;;;;;;5.55;100.00;102482.50;5113100;28;20528;-51
2022/11/13 03:19:04;;;;;;;20.73;15.40;;;;;;;5.55;100.00;102487.72;5112980;28;20043;-52
2022/11/13 03:21:32;;;;;;;19.92;14.20;;;;;;;5.55;100.00;102480.75;5112987;28;20051;-50
2022/11/13 03:24:01;;;;;;;19.88;14.85;;;;;;;5.60;100.00;102480.66;5113027;28;20097;-49
2022/11/13 03:26:30;;;;;;;20.50;14.80;;;;;;;5.61;100.00;102477.16;5112999;28;20093;-50
2022/11/13 03:28:58;;;;;;;20.30;14.35;;;;;;;5.67;100.00;102486.63;5112809;28;20134;-50
2022/11/13 03:31:28;;;;;;;19.65;14.68;;;;;;;5.65;100.00;102480.59;5111635;28;20055;-50
2022/11/13 03:33:57;;;;;;;17.65;14.10;;;;;;;5.65;100.00;102481.44;5111807;28;20047;-50
2022/11/13 03:36:25;;;;;;;20.55;14.82;;;;;;;5.65;100.00;102475.38;5110948;28;20180;-51
2022/11/13 03:38:55;;;;;;;24.83;15.18;;;;;;;5.64;100.00;102471.03;5109102;28;20048;-49
2022/11/13 03:41:24;;;;;;;17.92;13.80;;;;;;;5.61;100.00;102469.34;5112042;28;20048;-50
2022/11/13 03:43:52;;;;;;;18.23;14.30;;;;;;;5.57;100.00;102475.50;5111939;28;20040;-51
2022/11/13 03:46:20;;;;;;;17.88;13.70;;;;;;;5.54;100.00;102468.56;5112534;28;20039;-52
2022/11/13 03:48:49;;;;;;;22.13;14.52;;;;;;;5.52;100.00;102464.28;5112605;28;20432;-53
2022/11/13 03:51:17;;;;;;;18.70;13.45;;;;;;;5.48;100.00;102465.22;5112447;28;20498;-48
2022/11/13 03:53:46;;;;;;;17.50;13.65;;;;;;;5.46;100.00;102453.97;5112014;28;20118;-52
2022/11/13 03:56:14;;;;;;;17.88;12.95;;;;;;;5.42;100.00;102459.22;5112448;28;20402;-51
2022/11/13 03:58:44;;;;;;;19.42;13.35;;;;;;;5.41;100.00;102456.63;5112365;28;20051;-47
2022/11/13 04:01:19;;;;;;;18.45;13.68;;;;;;;5.40;100.00;102447.09;5112302;28;20490;-46
2022/11/13 04:03:49;;;;;;;18.88;13.85;;;;;;;5.39;100.00;102453.22;5110879;28;20105;-49
2022/11/13 04:06:17;;;;;;;17.38;13.55;;;;;;;5.37;100.00;102448.03;5112234;28;20519;-50
2022/11/13 04:08:45;;;;;;;17.73;13.07;;;;;;;5.41;100.00;102446.19;5112385;28;20036;-49
2022/11/13 04:11:13;;;;;;;18.50;14.13;;;;;;;5.37;100.00;102445.41;5112407;28;20035;-49
2022/11/13 04:13:47;;;;;;;18.92;13.88;;;;;;;5.37;100.00;102444.53;5111787;28;20039;-46
2022/11/13 04:16:16;;;;;;;17.60;12.95;;;;;;;5.32;100.00;102442.00;5112034;28;20527;-50
2022/11/13 04:18:44;;;;;;;18.67;14.05;;;;;;;5.29;100.00;102433.38;5112418;28;20047;-50
2022/11/13 04:21:14;;;;;;;19.40;12.65;;;;;;;5.27;100.00;102424.72;5112581;28;20432;-49
2022/11/13 04:23:42;;;;;;;19.88;14.30;;;;;;;5.24;100.00;102423.88;5112443;28;20040;-48
2022/11/13 04:26:10;;;;;;;19.02;13.70;;;;;;;5.25;100.00;102417.78;5112373;28;20434;-50
2022/11/13 04:28:38;;;;;;;19.48;13.65;;;;;;;5.22;100.00;102422.19;5112247;28;20459;-47
2022/11/13 04:31:06;;;;;;;18.63;13.20;;;;;;;5.18;100.00;102413.56;5112308;28;20052;-47
2022/11/13 04:33:34;;;;;;;16.38;12.63;;;;;;;5.13;100.00;102409.31;5112408;28;20039;-49
2022/11/13 04:36:03;;;;;;;19.73;12.80;;;;;;;5.07;100.00;102405.94;5112345;28;20039;-47
2022/11/13 04:38:32;;;;;;;18.85;13.35;;;;;;;5.05;100.00;102412.91;5110585;28;20050;-51
2022/11/13 04:43:47;;;;;;;16.60;13.02;;;;;;;4.98;100.00;102410.44;5112028;28;20067;-47
2022/11/13 04:46:16;;;;;;;16.33;11.85;;;;;;;4.91;100.00;102417.50;5114862;28;20052;-48
2022/11/13 04:48:44;;;;;;;17.33;12.82;;;;;;;4.87;100.00;102414.06;5115973;28;20052;-50
2022/11/13 04:51:12;;;;;;;18.65;13.18;;;;;;;4.84;100.00;102421.94;5115871;27;20127;-49
2022/11/13 04:53:42;;;;;;;19.23;12.60;;;;;;;4.83;100.00;102414.16;5115708;28;20040;-47
2022/11/13 04:56:10;;;;;;;18.52;12.68;;;;;;;4.78;100.00;102416.81;5115851;28;20039;-48
2022/11/13 04:58:39;;;;;;;17.88;12.82;;;;;;;4.80;100.00;102406.38;5115822;28;20071;-47
2022/11/13 05:01:07;;;;;;;18.08;11.80;;;;;;;4.69;100.00;102411.75;5115736;28;20043;-47
2022/11/13 05:03:35;;;;;;;17.75;12.65;;;;;;;4.68;100.00;102402.22;5115605;28;20043;-51
2022/11/13 05:06:04;;;;;;;16.73;11.77;;;;;;;4.66;100.00;102417.88;5115938;28;20452;-48
2022/11/13 05:08:32;;;;;;;17.58;11.73;;;;;;;4.62;100.00;102407.53;5115401;28;20052;-48
2022/11/13 05:11:03;;;;;;;14.95;11.13;;;;;;;4.61;100.00;102411.00;5115300;28;20055;-48
2022/11/13 05:13:33;;;;;;;15.25;11.13;;;;;;;4.62;100.00;102394.47;5115054;28;20466;-52
2022/11/13 05:16:04;;;;;;;16.20;11.93;;;;;;;4.54;100.00;102398.09;5113863;28;20055;-47
2022/11/13 05:18:33;;;;;;;16.75;12.30;;;;;;;4.52;100.00;102392.00;5115123;27;20071;-47
2022/11/13 05:21:01;;;;;;;16.17;12.50;;;;;;;4.46;100.00;102394.72;5114745;28;20501;-47
2022/11/13 05:23:29;;;;;;;18.73;13.38;;;;;;;4.41;100.00;102388.72;5113541;28;20203;-48
2022/11/13 05:26:04;;;;;;;17.13;11.82;;;;;;;4.36;100.00;102385.31;5115174;28;20088;-48
2022/11/13 05:28:33;;;;;;;18.58;13.00;;;;;;;4.32;100.00;102381.91;5115218;28;20551;-49
2022/11/13 05:31:06;;;;;;;15.13;11.43;;;;;;;4.25;100.00;102387.22;5113277;28;20048;-46
2022/11/13 05:33:34;;;;;;;18.80;12.18;;;;;;;4.25;100.00;102379.41;5110143;28;20498;-47
2022/11/13 05:36:03;;;;;;;17.98;11.77;;;;;;;4.30;100.00;102382.81;5114973;28;20631;-51
2022/11/13 05:38:31;;;;;;;17.92;12.40;;;;;;;4.29;100.00;102379.31;5114176;28;20052;-50
2022/11/13 05:41:06;;;;;;;15.98;11.57;;;;;;;4.31;100.00;102381.91;5111657;28;20458;-52
2022/11/13 05:43:35;;;;;;;19.33;11.88;;;;;;;4.27;100.00;102375.91;5110788;28;20088;-50
2022/11/13 05:46:05;;;;;;;17.60;11.80;;;;;;;4.19;100.00;102372.53;5111465;28;20039;-49
2022/11/13 05:48:34;;;;;;;16.15;11.77;;;;;;;4.17;100.00;102375.16;5110544;28;20454;-49
2022/11/13 05:51:03;;;;;;;15.02;11.55;;;;;;;4.12;100.00;102371.75;5110219;28;20036;-50
2022/11/13 05:53:32;;;;;;;16.17;11.48;;;;;;;4.13;100.00;102367.41;5114665;27;20044;-50
2022/11/13 05:56:01;;;;;;;17.58;12.13;;;;;;;4.02;100.00;102365.81;5112366;28;20059;-52
2022/11/13 05:58:32;;;;;;;17.13;11.77;;;;;;;4.01;100.00;102371.91;5110124;28;20058;-51
2022/11/13 06:01:09;;;;;;;14.82;11.77;;;;;;;4.05;100.00;102365.78;5111404;28;20054;-52
2022/11/13 06:03:37;;;;;;;19.52;11.77;;;;;;;3.94;100.00;102357.25;5110314;28;20073;-52
2022/11/13 06:06:06;;;;;;;17.67;11.57;;;;;;;3.99;100.00;102365.00;5110970;27;20040;-51
2022/11/13 06:08:35;;;;;;;16.95;11.70;;;;;;;3.91;100.00;102361.63;5108351;28;20078;-50
2022/11/13 06:11:05;;;;;;;15.77;11.73;;;;;;;3.97;100.00;102361.56;5110707;28;20039;-50
2022/11/13 06:13:35;;;;;;;15.07;11.20;;;;;;;3.87;100.00;102359.06;5109813;28;20059;-49
2022/11/13 06:16:05;;;;;;;16.90;12.13;;;;;;;3.82;100.00;102358.25;5110806;28;20387;-48
2022/11/13 06:18:34;;;;;;;16.83;12.25;;;;;;;3.80;100.00;102357.41;5110145;28;20685;-53
2022/11/13 06:21:03;;;;;;;19.27;12.25;;;;;;;3.75;100.00;102354.03;5112444;28;20138;-51
2022/11/13 06:23:33;;;;;;;16.77;12.35;;;;;;;3.87;100.00;102353.00;5111377;28;20075;-51
2022/11/13 06:26:02;;;;;;;16.10;11.93;;;;;;;3.84;100.00;102351.28;5111328;28;20062;-49
2022/11/13 06:28:33;;;;;;;16.25;12.20;;;;;;;3.81;100.00;102348.72;5110441;28;20043;-49
2022/11/13 06:31:08;;;;;;;15.95;11.77;;;;;;;3.79;100.00;102349.63;5111993;28;20044;-46
2022/11/13 06:33:40;;;;;;;15.40;11.32;;;;;;;3.71;100.00;102347.13;5113714;28;20050;-50
2022/11/13 06:36:12;;;;;;;16.75;12.23;;;;;;;3.68;100.00;102348.03;5112473;28;20066;-50
2022/11/13 06:38:55;;;;;;;16.05;11.60;;;;;;;3.68;100.00;102349.75;5112448;28;20044;-46
2022/11/13 06:41:31;;;;;;;15.32;11.45;;;;;;;3.68;100.00;102354.97;5111908;28;20510;-48
2022/11/13 06:44:04;;;;;;;17.98;12.45;;;;;;;3.65;100.00;102352.41;5112266;28;20085;-50
2022/11/13 06:46:35;;;;;;;17.75;11.68;;;;;;;3.65;100.00;102355.84;5113565;28;20059;-50
2022/11/13 06:49:05;;;;;;;18.60;12.55;;;;;;;3.64;100.00;102350.69;5113533;28;20043;-45
2022/11/13 06:51:41;;;;;;;15.60;11.60;;;;;;;3.61;100.00;102356.78;5111953;28;20177;-49
2022/11/13 06:54:09;;;;;;;17.63;12.35;;;;;;;3.58;100.00;102349.00;5113076;28;20050;-50
2022/11/13 06:56:42;;;;;;;17.02;12.18;;;;;;;3.62;100.00;102344.66;5110661;28;20474;-48
2022/11/13 06:59:11;;;;;;;19.13;12.93;;;;;;;3.63;100.00;102341.16;5109651;28;20079;-46
2022/11/13 07:01:50;;;;;;;17.95;13.60;;;;;;;3.60;100.00;102349.88;5113094;28;20063;-45
2022/11/13 07:04:20;;;;;;;17.75;12.52;;;;;;;3.67;100.00;102348.06;5113456;28;20494;-46
2022/11/13 07:06:50;;;;;;;18.00;13.07;;;;;;;3.72;100.00;102344.50;5113352;28;20104;-46
2022/11/13 07:09:21;;;;;;;19.88;14.05;;;;;;;3.75;100.00;102346.22;5113148;28;20550;-48
2022/11/13 07:12:03;;;;;;;17.05;12.70;;;;;;;3.77;100.00;102346.19;5111723;28;20044;-47
2022/11/13 07:14:38;;;;;;;16.13;12.73;;;;;;;3.81;100.00;102347.88;5113449;28;20035;-51
2022/11/13 07:17:08;;;;;;;17.90;12.50;;;;;;;3.87;100.00;102350.38;5113050;28;20035;-51
2022/11/13 07:19:48;;;;;;;18.55;13.10;;;;;;;3.88;100.00;102342.56;5113031;28;20356;-48
2022/11/13 07:22:33;;;;;;;18.00;12.90;;;;;;;3.93;100.00;102345.13;5112939;28;20085;-46
2022/11/13 07:25:10;;;;;;;19.00;13.20;;;;;;;3.99;100.00;102347.63;5112800;28;20138;-47
2022/11/13 07:27:44;;;;;;;17.20;12.15;;;;;;;4.12;100.00;102350.06;5113055;28;20052;-50
2022/11/13 07:30:17;;;;;;;16.02;12.18;;;;;;;4.26;100.00;102348.13;5109951;27;20035;-49
2022/11/13 07:32:47;;;;;;;16.48;12.23;;;;;;;4.54;100.00;102340.75;5109590;28;20047;-50
2022/11/13 07:35:16;;;;;;;16.27;12.23;;;;;;;4.81;100.00;102340.31;5112560;28;20076;-47
2022/11/13 07:37:45;;;;;;;16.52;12.45;;;;;;;5.00;100.00;102338.25;5111490;28;20310;-49
2022/11/13 07:40:13;;;;;;;16.55;11.82;;;;;;;5.28;100.00;102341.22;5112885;28;20051;-50
2022/11/13 07:42:44;;;;;;;18.55;11.68;;;;;;;5.38;100.00;102339.28;5112497;28;20051;-47
2022/11/13 07:45:18;;;;;;;15.40;11.20;;;;;;;5.51;100.00;102334.69;5111007;28;20498;-48
2022/11/13 07:47:47;;;;;;;17.63;11.52;;;;;;;5.72;100.00;102331.63;5112607;28;20044;-51
2022/11/13 07:50:16;;;;;;;16.17;11.10;;;;;;;5.85;100.00;102329.63;5110629;28;20722;-53
2022/11/13 07:52:44;;;;;;;14.48;10.82;;;;;;;6.03;100.00;102333.59;5109512;28;20101;-54
2022/11/13 07:55:12;;;;;;;16.92;11.20;;;;;;;6.26;100.00;102321.78;5108708;28;20039;-48
2022/11/13 07:57:40;;;;;;;15.15;11.00;;;;;;;6.38;100.00;102321.50;5108570;28;20130;-51
2022/11/13 08:00:09;;;;;;;15.70;11.02;;;;;;;6.45;100.00;102326.56;5111732;28;20108;-47
2022/11/13 08:02:38;;;;;;;15.85;11.52;;;;;;;6.59;100.00;102329.69;5112199;28;20498;-45
2022/11/13 08:05:08;;;;;;;15.43;11.70;;;;;;;6.67;100.00;102329.53;5111807;28;20046;-49
2022/11/13 08:07:37;;;;;;;15.93;10.63;;;;;;;6.85;100.00;102325.56;5110628;28;20379;-48
2022/11/13 08:10:07;;;;;;;16.40;11.85;;;;;;;7.11;100.00;102327.50;5112121;28;20054;-47
2022/11/13 08:12:35;;;;;;;14.77;10.90;;;;;;;7.40;100.00;102325.84;5112410;28;20050;-51
2022/11/13 08:15:08;;;;;;;14.85;11.35;;;;;;;7.53;100.00;102321.97;5112050;28;20032;-48
2022/11/13 08:17:41;;;;;;;13.88;11.00;;;;;;;7.54;100.00;102325.44;5112568;28;20451;-50
2022/11/13 08:20:12;;;;;;;13.52;9.73;;;;;;;7.78;100.00;102319.50;5112802;28;20048;-47
2022/11/13 08:22:40;;;;;;;14.48;10.27;;;;;;;7.61;100.00;102312.13;5114674;28;20063;-48
2022/11/13 08:25:09;;;;;;;13.77;10.32;;;;;;;7.78;100.00;102314.25;5115928;28;20039;-50
2022/11/13 08:27:37;;;;;;;14.35;10.18;;;;;;;7.73;100.00;102312.66;5114924;28;20047;-48
2022/11/13 08:30:09;;;;;;;12.93;9.68;;;;;;;7.72;100.00;102308.34;5116190;28;20085;-52
2022/11/13 08:32:40;;;;;;;14.02;10.80;;;;;;;7.76;100.00;102304.75;5116295;28;20062;-50
2022/11/13 08:35:10;;;;;;;12.18;9.98;;;;;;;7.68;100.00;102306.72;5115919;28;20039;-50
2022/11/13 08:37:47;;;;;;;14.68;10.65;;;;;;;7.85;100.00;102303.59;5116376;28;20399;-51
2022/11/13 08:40:15;;;;;;;13.85;10.68;;;;;;;8.05;100.00;102305.59;5114822;28;20093;-49
2022/11/13 08:42:43;;;;;;;15.82;10.82;;;;;;;7.98;100.00;102302.31;5115902;28;20100;-52
2022/11/13 08:45:18;;;;;;;14.32;10.80;;;;;;;8.00;100.00;102302.25;5114466;28;20054;-51
2022/11/13 08:47:46;;;;;;;14.50;10.60;;;;;;;8.06;100.00;102294.22;5115945;27;20050;-50
2022/11/13 08:50:17;;;;;;;14.13;10.98;;;;;;;8.10;100.00;102285.34;5115915;28;20052;-52
2022/11/13 08:52:45;;;;;;;15.43;11.75;;;;;;;8.09;100.00;102288.88;5115854;28;20081;-48
2022/11/13 08:55:13;;;;;;;14.75;11.00;;;;;;;8.19;100.00;102287.66;5115222;28;20504;-47
2022/11/13 08:57:41;;;;;;;15.23;11.38;;;;;;;8.25;100.00;102286.63;5115288;28;20075;-49
2022/11/13 09:00:13;;;;;;;15.20;12.05;;;;;;;8.29;100.00;102283.84;5115647;28;20102;-49
2022/11/13 09:02:42;;;;;;;15.25;11.48;;;;;;;8.34;100.00;102277.59;5115700;28;20082;-50
2022/11/13 09:05:11;;;;;;;14.98;11.18;;;;;;;8.36;100.00;102283.66;5115607;28;20428;-51
2022/11/13 09:07:41;;;;;;;14.88;11.05;;;;;;;8.34;100.00;102286.31;5115295;27;20124;-51
2022/11/13 09:10:10;;;;;;;16.98;11.23;;;;;;;8.36;100.00;102276.63;5115037;28;20047;-53
2022/11/13 09:12:38;;;;;;;15.43;11.63;;;;;;;8.49;100.00;102279.72;5115043;27;20382;-55
2022/11/13 09:15:07;;;;;;;17.15;11.38;;;;;;;8.58;100.00;102268.94;5114241;28;20526;-53
2022/11/13 09:17:35;;;;;;;14.88;11.02;;;;;;;8.66;100.00;102273.94;5110894;28;20099;-54
2022/11/13 09:20:06;;;;;;;16.08;11.52;;;;;;;8.72;100.00;102276.31;5111580;28;20051;-56
2022/11/13 09:22:41;;;;;;;13.90;10.77;;;;;;;8.77;100.00;102269.16;5111868;28;20067;-56
2022/11/13 09:25:09;;;;;;;15.40;11.32;;;;;;;8.86;100.00;102272.38;5110208;28;20052;-56
2022/11/13 09:27:37;;;;;;;16.52;10.73;;;;;;;9.05;100.00;102262.06;5111383;28;20087;-56
2022/11/13 09:30:07;;;;;;;14.27;10.88;;;;;;;9.27;100.00;102268.28;5111824;28;20048;-56
2022/11/13 09:32:35;;;;;;;14.80;11.27;;;;;;;9.48;100.00;102263.97;5109597;28;20457;-56
2022/11/13 09:35:03;;;;;;;15.57;10.48;;;;;;;9.51;100.00;102260.38;5111400;28;20093;-57
2022/11/13 09:37:32;;;;;;;15.70;11.50;;;;;;;9.75;100.00;102255.94;5111713;27;20554;-57
2022/11/13 09:40:02;;;;;;;14.25;10.43;;;;;;;9.95;100.00;102263.06;5111747;28;20120;-57
2022/11/13 09:42:32;;;;;;;13.73;10.25;;;;;;;10.10;100.00;102253.69;5114821;28;20062;-57
2022/11/13 09:45:06;;;;;;;14.18;10.80;;;;;;;10.49;100.00;102254.75;5113647;28;20048;-57
2022/11/13 09:47:39;;;;;;;14.55;10.45;;;;;;;10.80;100.00;102259.56;5114843;28;20035;-57
2022/11/13 09:50:16;;;;;;;16.13;10.70;;;;;;;11.03;100.00;102249.78;5110917;28;20044;-57
2022/11/13 09:52:46;;;;;;;14.75;9.90;;;;;;;11.52;100.00;102254.59;5111021;28;20501;-57
2022/11/13 09:55:20;;;;;;;13.55;10.60;;;;;;;11.62;100.00;102258.50;5110206;28;20490;-57
2022/11/13 09:57:55;;;;;;;12.48;9.93;;;;;;;11.67;100.00;102259.13;5112680;28;20040;-57
2022/11/13 10:00:23;;;;;;;14.65;10.45;;;;;;;11.81;100.00;102257.63;5111194;28;20097;-58
2022/11/13 10:03:03;;;;;;;13.32;9.85;;;;;;;11.87;100.00;102259.13;5109771;27;20044;-57
2022/11/13 10:05:49;;;;;;;11.70;9.80;;;;;;;11.74;100.00;102258.84;5110476;27;20494;-57
2022/11/13 10:08:21;;;;;;;15.30;9.75;;;;;;;11.83;100.00;102261.03;5110644;28;20051;-54
2022/11/13 10:10:55;;;;;;;13.88;10.07;;;;;;;11.76;100.00;102257.84;5110177;28;20039;-54
2022/11/13 10:13:28;;;;;;;14.82;9.35;;;;;;;11.63;100.00;102260.22;5114030;28;20048;-55
2022/11/13 10:16:00;;;;;;;;;;;;;;;11.65;100.00;102245.16;5114424;28;20047;-54
2022/11/13 10:18:33;;;;;;;17.13;9.60;;;;;;;11.49;100.00;102246.81;5114374;28;19920;-54
2022/11/13 10:21:08;;;;;;;;;;;;;;;11.62;100.00;102253.22;5113533;27;20116;-54
2022/11/13 10:23:38;;;;;;;13.02;9.32;;;;;;;11.59;100.00;102247.22;5114223;28;20356;-53
2022/11/13 10:26:15;;;;;;;14.75;9.95;;;;;;;11.70;100.00;102244.09;5113369;28;20077;-52
2022/11/13 10:28:43;;;;;;;14.13;9.43;;;;;;;11.91;100.00;102234.31;5110043;28;20043;-58
2022/11/13 10:31:18;;;;;;;15.45;9.98;;;;;;;11.94;100.00;102237.69;5111233;28;20048;-58
2022/11/13 10:33:46;;;;;;;14.60;9.75;;;;;;;11.97;100.00;102228.75;5110325;28;20074;-58
2022/11/13 10:36:21;;;;;;;13.43;9.88;;;;;;;12.08;100.00;102225.59;5110853;28;20469;-54
2022/11/13 10:38:58;;;;;;;13.30;9.45;;;;;;;12.40;100.00;102223.97;5113918;28;20051;-53
2022/11/13 10:41:27;;;;;;;16.00;9.60;;;;;;;12.58;100.00;102223.97;5113814;28;20064;-55
2022/11/13 10:44:02;;;;;;;14.88;9.65;;;;;;;12.67;100.00;102215.59;5113118;27;20048;-54
2022/11/13 10:46:32;;;;;;;13.13;8.98;;;;;;;12.75;100.00;102217.78;5113740;28;20060;-55
2022/11/13 10:49:12;;;;;;;13.02;9.40;;;;;;;12.88;100.00;102213.59;5113593;28;20043;-51
2022/11/13 10:51:40;;;;;;;11.75;9.52;;;;;;;12.74;100.00;102216.97;5113647;28;20093;-54
2022/11/13 10:54:22;;;;;;;13.23;9.40;;;;;;;12.74;100.00;102216.97;5113612;28;20574;-51
2022/11/13 10:56:59;;;;;;;12.30;9.20;;;;;;;12.61;100.00;102205.34;5113405;27;20040;-54
2022/11/13 10:59:39;;;;;;;14.30;10.35;;;;;;;12.65;100.00;102201.59;5112230;28;20094;-53
2022/11/13 11:02:17;;;;;;;11.88;9.45;;;;;;;12.71;100.00;102201.28;5110890;28;20070;-54
2022/11/13 11:04:46;;;;;;;12.68;10.05;;;;;;;12.76;100.00;102198.41;5109604;28;20060;-54
2022/11/13 11:07:16;;;;;;;13.60;9.73;;;;;;;12.73;100.00;102198.56;5111719;28;20039;-55
2022/11/13 11:09:49;;;;;;;12.85;9.35;;;;;;;12.70;100.00;102190.81;5113243;28;20048;-55
2022/11/13 11:12:22;;;;;;;13.70;9.48;;;;;;;12.79;100.00;102188.53;5113322;28;20052;-55
2022/11/13 11:15:10;;;;;;;13.15;9.32;;;;;;;12.82;100.00;102187.53;5113100;28;20490;-55
2022/11/13 11:17:44;;;;;;;12.75;9.52;;;;;;;12.88;100.00;102187.19;5109011;28;20568;-54
2022/11/13 11:20:23;;;;;;;11.70;9.43;;;;;;;13.00;100.00;102177.75;5109146;28;20059;-54
2022/11/13 11:22:57;;;;;;;11.88;9.27;;;;;;;13.00;100.00;102175.94;5111380;28;20386;-54
2022/11/13 11:25:33;;;;;;;13.77;8.75;;;;;;;13.15;100.00;102176.91;5113062;28;20560;-55
2022/11/13 11:28:11;;;;;;;13.20;9.30;;;;;;;13.11;100.00;102177.16;5113738;28;20048;-54